createdAt,value
2017-11-28T00:00:42.307Z,1.5
2017-11-28T00:01:44.618Z,1.6
2017-11-28T00:02:45.917Z,1.6
2017-11-28T00:03:47.200Z,1.6
2017-11-28T00:04:48.553Z,1.6
2017-11-28T00:05:49.861Z,1.6
2017-11-28T00:06:51.142Z,1.7
2017-11-28T00:07:53.844Z,1.7
2017-11-28T00:08:55.246Z,1.7
2017-11-28T00:09:56.578Z,1.7
2017-11-28T00:10:58.019Z,1.7
2017-11-28T00:11:59.294Z,1.7
2017-11-28T00:13:00.553Z,1.7
2017-11-28T00:14:01.857Z,1.7
2017-11-28T00:15:03.164Z,1.2
2017-11-28T00:16:04.568Z,1.7
2017-11-28T00:17:05.850Z,1.7
2017-11-28T00:18:09.216Z,1.7
2017-11-28T00:19:10.528Z,1.7
2017-11-28T00:20:11.781Z,1.7
2017-11-28T00:21:13.128Z,1.7
2017-11-28T00:22:15.225Z,1.7
2017-11-28T00:23:16.572Z,1.7
2017-11-28T00:24:17.957Z,1.7
2017-11-28T00:25:19.334Z,1.7
2017-11-28T00:26:21.037Z,1.7
2017-11-28T00:27:22.456Z,1.7
2017-11-28T00:28:25.176Z,1.8
2017-11-28T00:29:26.846Z,1.7
2017-11-28T00:30:28.280Z,1.8
2017-11-28T00:31:30.252Z,1.7
2017-11-28T00:32:31.620Z,1.7
2017-11-28T00:33:32.905Z,1.7
2017-11-28T00:34:34.224Z,1.7
2017-11-28T00:35:35.468Z,1.7
2017-11-28T00:36:36.959Z,1.7
2017-11-28T00:37:38.274Z,1.7
2017-11-28T00:38:40.945Z,1.7
2017-11-28T00:39:42.322Z,1.7
2017-11-28T00:40:43.634Z,1.7
2017-11-28T00:41:44.976Z,1.7
2017-11-28T00:42:46.163Z,1.7
2017-11-28T00:43:47.581Z,1.8
2017-11-28T00:44:48.937Z,1.8
2017-11-28T00:45:50.197Z,1.8
2017-11-28T00:46:51.602Z,1.9
2017-11-28T00:47:52.833Z,1.8
2017-11-28T00:48:55.605Z,1.9
2017-11-28T00:49:57.519Z,1.9
2017-11-28T00:50:58.872Z,1.9
2017-11-28T00:52:00.180Z,2.1
2017-11-28T00:53:01.455Z,1.9
2017-11-28T00:54:02.804Z,1.9
2017-11-28T00:55:04.229Z,1.9
2017-11-28T00:56:05.584Z,1.9
2017-11-28T00:57:06.899Z,1.9
2017-11-28T00:58:08.262Z,1.9
2017-11-28T00:59:10.847Z,1.9
2017-11-28T01:00:12.523Z,1.9
2017-11-28T01:01:14.011Z,1.9
2017-11-28T01:02:15.279Z,1.9
2017-11-28T01:03:16.533Z,1.9
2017-11-28T01:04:17.855Z,1.9
2017-11-28T01:05:19.483Z,1.9
2017-11-28T01:06:20.701Z,1.9
2017-11-28T01:07:21.970Z,1.9
2017-11-28T01:08:23.300Z,1.9
2017-11-28T01:09:26.015Z,1.9
2017-11-28T01:10:27.287Z,1.9
2017-11-28T01:11:28.539Z,1.9
2017-11-28T01:12:29.879Z,1.9
2017-11-28T01:13:31.282Z,1.9
2017-11-28T01:14:32.644Z,1.9
2017-11-28T01:15:34.015Z,1.9
2017-11-28T01:16:35.311Z,1.9
2017-11-28T01:17:36.565Z,1.9
2017-11-28T01:18:37.946Z,1.9
2017-11-28T01:19:40.842Z,1.9
2017-11-28T01:20:43.178Z,1.9
2017-11-28T01:21:44.520Z,1.9
2017-11-28T01:22:45.746Z,1.9
2017-11-28T01:23:47.095Z,2
2017-11-28T01:24:48.456Z,2
2017-11-28T01:25:49.743Z,2
2017-11-28T01:26:50.794Z,2
2017-11-28T01:27:52.045Z,1.9
2017-11-28T01:28:53.387Z,2
2017-11-28T01:29:56.151Z,2
2017-11-28T01:30:57.531Z,2
2017-11-28T01:31:58.853Z,2
2017-11-28T01:33:00.182Z,2
2017-11-28T01:34:01.529Z,2
2017-11-28T01:35:02.900Z,2.1
2017-11-28T01:36:04.161Z,2.1
2017-11-28T01:37:05.318Z,2.1
2017-11-28T01:38:06.576Z,2.1
2017-11-28T01:39:07.901Z,2.4
2017-11-28T01:40:11.232Z,2.1
2017-11-28T01:41:12.615Z,2.1
2017-11-28T01:42:13.956Z,2.1
2017-11-28T01:43:15.306Z,1.7
2017-11-28T01:44:16.611Z,2.1
2017-11-28T01:45:17.900Z,2.1
2017-11-28T01:46:20.191Z,2.1
2017-11-28T01:47:21.453Z,2.1
2017-11-28T01:48:22.872Z,2.1
2017-11-28T01:49:23.986Z,2.1
2017-11-28T01:50:27.473Z,2.1
2017-11-28T01:51:28.870Z,2.1
2017-11-28T01:52:30.150Z,1.6
2017-11-28T01:53:31.492Z,2.1
2017-11-28T01:54:32.762Z,2.1
2017-11-28T01:55:34.003Z,2.2
2017-11-28T01:56:35.439Z,2.1
2017-11-28T01:57:36.716Z,2.2
2017-11-28T01:58:38.046Z,2.2
2017-11-28T01:59:39.355Z,2.2
2017-11-28T02:00:42.139Z,2.2
2017-11-28T02:01:43.716Z,2.2
2017-11-28T02:02:45.909Z,2.2
2017-11-28T02:03:47.776Z,1.8
2017-11-28T02:04:49.113Z,2.2
2017-11-28T02:05:50.435Z,2.2
2017-11-28T02:06:51.859Z,2.3
2017-11-28T02:07:53.138Z,2.3
2017-11-28T02:08:55.032Z,2.3
2017-11-28T02:09:56.429Z,2
2017-11-28T02:10:58.989Z,2.3
2017-11-28T02:12:00.274Z,2.3
2017-11-28T02:13:01.570Z,2.3
2017-11-28T02:14:02.858Z,2.3
2017-11-28T02:15:04.301Z,2.3
2017-11-28T02:16:05.564Z,2.3
2017-11-28T02:17:07.643Z,2.4
2017-11-28T02:18:08.986Z,2.3
2017-11-28T02:19:10.298Z,2.4
2017-11-28T02:20:11.675Z,2.3
2017-11-28T02:21:14.344Z,2.3
2017-11-28T02:22:15.673Z,2.3
2017-11-28T02:23:17.022Z,2.3
2017-11-28T02:24:18.344Z,2.3
2017-11-28T02:25:19.744Z,2.3
2017-11-28T02:26:21.067Z,2.3
2017-11-28T02:27:22.395Z,2.3
2017-11-28T02:28:23.702Z,1.9
2017-11-28T02:29:25.061Z,2.3
2017-11-28T02:30:26.288Z,2.3
2017-11-28T02:31:29.075Z,2.3
2017-11-28T02:32:30.635Z,2.3
2017-11-28T02:33:31.963Z,2.3
2017-11-28T02:34:33.285Z,2.3
2017-11-28T02:35:34.561Z,2.3
2017-11-28T02:36:35.859Z,2.3
2017-11-28T02:37:37.295Z,2.3
2017-11-28T02:38:38.753Z,2.3
2017-11-28T02:39:40.048Z,2.3
2017-11-28T02:40:41.340Z,2.3
2017-11-28T02:41:44.034Z,2.3
2017-11-28T02:42:45.444Z,2.3
2017-11-28T02:43:46.868Z,2.3
2017-11-28T02:44:48.123Z,2.3
2017-11-28T02:45:49.527Z,2.3
2017-11-28T02:46:50.924Z,2.3
2017-11-28T02:47:52.642Z,2.3
2017-11-28T02:48:54.703Z,2.3
2017-11-28T02:49:56.042Z,2.3
2017-11-28T02:50:57.331Z,2.4
2017-11-28T02:52:00.075Z,2.3
2017-11-28T02:53:01.429Z,2.3
2017-11-28T02:54:02.856Z,2.3
2017-11-28T02:55:03.970Z,2.3
2017-11-28T02:56:05.325Z,2.3
2017-11-28T02:57:06.672Z,2.4
2017-11-28T02:58:08.043Z,2.3
2017-11-28T02:59:09.284Z,2.3
2017-11-28T03:00:10.648Z,2.3
2017-11-28T03:01:11.897Z,2.3
2017-11-28T03:02:14.690Z,2.3
2017-11-28T03:03:15.961Z,2.3
2017-11-28T03:04:17.267Z,2.3
2017-11-28T03:05:18.559Z,2.3
2017-11-28T03:06:19.895Z,2.4
2017-11-28T03:07:21.224Z,2.4
2017-11-28T03:08:22.792Z,2.4
2017-11-28T03:09:24.152Z,2.3
2017-11-28T03:10:25.499Z,2.3
2017-11-28T03:11:26.816Z,2.3
2017-11-28T03:12:29.479Z,2.3
2017-11-28T03:13:31.072Z,2.3
2017-11-28T03:14:32.394Z,2.3
2017-11-28T03:15:33.633Z,2.3
2017-11-28T03:16:35.011Z,2.6
2017-11-28T03:17:36.372Z,2
2017-11-28T03:18:37.770Z,2.3
2017-11-28T03:19:39.154Z,2.3
2017-11-28T03:20:40.376Z,2.3
2017-11-28T03:21:41.622Z,2.3
2017-11-28T03:22:44.955Z,2.3
2017-11-28T03:23:46.343Z,2.3
2017-11-28T03:24:47.665Z,2.3
2017-11-28T03:25:49.064Z,2.3
2017-11-28T03:26:50.423Z,2.3
2017-11-28T03:27:51.688Z,2.6
2017-11-28T03:28:53.346Z,1.8
2017-11-28T03:29:54.984Z,2.3
2017-11-28T03:30:56.360Z,2.3
2017-11-28T03:31:57.667Z,2.3
2017-11-28T03:33:00.317Z,2.3
2017-11-28T03:34:01.693Z,2.2
2017-11-28T03:35:03.106Z,2.3
2017-11-28T03:36:04.368Z,2.2
2017-11-28T03:37:05.668Z,2.2
2017-11-28T03:38:07.027Z,2.2
2017-11-28T03:39:08.400Z,2.2
2017-11-28T03:40:09.752Z,2.2
2017-11-28T03:41:11.073Z,2.2
2017-11-28T03:42:12.383Z,2.2
2017-11-28T03:43:14.996Z,2.2
2017-11-28T03:44:16.626Z,2.2
2017-11-28T03:45:17.941Z,2.2
2017-11-28T03:46:19.298Z,2.2
2017-11-28T03:47:20.676Z,2.2
2017-11-28T03:48:22.072Z,2.2
2017-11-28T03:49:23.682Z,2.3
2017-11-28T03:50:25.105Z,2.3
2017-11-28T03:51:26.494Z,2.7
2017-11-28T03:52:27.857Z,2.3
2017-11-28T03:53:30.443Z,2.3
2017-11-28T03:54:31.822Z,2.3
2017-11-28T03:55:33.139Z,2.3
2017-11-28T03:56:34.445Z,2.2
2017-11-28T03:57:35.749Z,2.2
2017-11-28T03:58:37.096Z,2.2
2017-11-28T03:59:38.740Z,2.2
2017-11-28T04:00:40.033Z,2.2
2017-11-28T04:01:41.376Z,2.2
2017-11-28T04:02:42.668Z,2.2
2017-11-28T04:03:45.532Z,2.2
2017-11-28T04:04:46.984Z,2.2
2017-11-28T04:05:48.337Z,2.5
2017-11-28T04:06:49.809Z,2.2
2017-11-28T04:07:51.269Z,2.2
2017-11-28T04:08:52.351Z,2.2
2017-11-28T04:09:53.674Z,2.2
2017-11-28T04:10:54.983Z,2.2
2017-11-28T04:11:56.390Z,1.7
2017-11-28T04:12:58.426Z,2.1
2017-11-28T04:14:01.113Z,2.1
2017-11-28T04:15:02.474Z,2.1
2017-11-28T04:16:03.977Z,2.1
2017-11-28T04:17:05.512Z,2.1
2017-11-28T04:18:06.837Z,2.1
2017-11-28T04:19:08.244Z,2
2017-11-28T04:20:09.917Z,2
2017-11-28T04:21:11.236Z,2
2017-11-28T04:22:12.453Z,2
2017-11-28T04:23:13.762Z,2
2017-11-28T04:24:16.460Z,2
2017-11-28T04:25:19.498Z,2
2017-11-28T04:26:20.852Z,2
2017-11-28T04:27:22.257Z,2
2017-11-28T04:28:24.195Z,2
2017-11-28T04:29:26.620Z,2
2017-11-28T04:30:28.008Z,2
2017-11-28T04:31:29.452Z,2.1
2017-11-28T04:32:30.694Z,2
2017-11-28T04:33:32.742Z,2.1
2017-11-28T04:34:36.636Z,2.2
2017-11-28T04:35:38.135Z,1.6
2017-11-28T04:36:40.004Z,2.1
2017-11-28T04:37:41.312Z,2.1
2017-11-28T04:38:42.711Z,2.1
2017-11-28T04:39:44.135Z,2.1
2017-11-28T04:40:46.566Z,2
2017-11-28T04:41:47.823Z,2
2017-11-28T04:42:49.074Z,2
2017-11-28T04:43:50.219Z,1.5
2017-11-28T04:44:55.019Z,2
2017-11-28T04:45:56.668Z,2
2017-11-28T04:46:57.913Z,2
2017-11-28T04:47:59.291Z,2
2017-11-28T04:49:01.609Z,2
2017-11-28T04:50:03.649Z,2
2017-11-28T04:51:05.633Z,2
2017-11-28T04:52:07.583Z,2
2017-11-28T04:53:08.886Z,2
2017-11-28T04:54:09.943Z,2
2017-11-28T04:55:12.731Z,2
2017-11-28T04:56:14.797Z,2
2017-11-28T04:57:16.178Z,2
2017-11-28T04:58:18.719Z,2
2017-11-28T04:59:20.656Z,2
2017-11-28T05:00:22.375Z,2
2017-11-28T05:01:23.727Z,1.5
2017-11-28T05:02:25.747Z,2
2017-11-28T05:03:27.683Z,2.2
2017-11-28T05:04:29.602Z,2
2017-11-28T05:05:33.823Z,2
2017-11-28T05:06:36.126Z,2.4
2017-11-28T05:07:38.086Z,2
2017-11-28T05:08:39.170Z,2
2017-11-28T05:09:40.515Z,2
2017-11-28T05:10:42.755Z,1.9
2017-11-28T05:11:44.279Z,1.9
2017-11-28T05:12:45.636Z,2
2017-11-28T05:13:47.002Z,2
2017-11-28T05:14:48.299Z,1.9
2017-11-28T05:15:52.761Z,2
2017-11-28T05:16:53.849Z,1.9
2017-11-28T05:17:55.048Z,1.5
2017-11-28T05:18:57.233Z,1.9
2017-11-28T05:19:58.559Z,1.9
2017-11-28T05:20:59.834Z,2
2017-11-28T05:22:04.222Z,2
2017-11-28T05:23:06.211Z,2
2017-11-28T05:24:07.493Z,2
2017-11-28T05:25:08.879Z,2
2017-11-28T05:26:11.685Z,2.4
2017-11-28T05:27:12.828Z,2
2017-11-28T05:28:15.089Z,2
2017-11-28T05:29:17.161Z,2
2017-11-28T05:30:19.276Z,2.4
2017-11-28T05:31:20.596Z,2
2017-11-28T05:32:21.916Z,2
2017-11-28T05:33:23.237Z,2
2017-11-28T05:34:24.616Z,2
2017-11-28T05:35:26.708Z,2
2017-11-28T05:36:29.467Z,2.3
2017-11-28T05:37:31.774Z,1.9
2017-11-28T05:38:33.181Z,2
2017-11-28T05:39:34.644Z,2
2017-11-28T05:40:36.048Z,2
2017-11-28T05:41:37.443Z,2
2017-11-28T05:42:39.388Z,2
2017-11-28T05:43:40.651Z,2
2017-11-28T05:44:42.724Z,1.9
2017-11-28T05:45:44.127Z,1.9
2017-11-28T05:46:47.273Z,1.9
2017-11-28T05:47:48.652Z,1.9
2017-11-28T05:48:50.035Z,1.9
2017-11-28T05:49:51.127Z,1.9
2017-11-28T05:50:52.545Z,1.9
2017-11-28T05:51:55.672Z,1.9
2017-11-28T05:52:57.101Z,1.9
2017-11-28T05:53:58.535Z,1.9
2017-11-28T05:55:00.807Z,1.9
2017-11-28T05:56:02.703Z,1.9
2017-11-28T05:57:05.513Z,1.9
2017-11-28T05:58:07.336Z,1.9
2017-11-28T05:59:09.656Z,1.9
2017-11-28T06:00:11.084Z,1.9
2017-11-28T06:01:13.047Z,1.8
2017-11-28T06:02:15.387Z,1.9
2017-11-28T06:03:17.349Z,2.2
2017-11-28T06:04:18.718Z,1.8
2017-11-28T06:05:21.154Z,1.8
2017-11-28T06:06:22.255Z,1.8
2017-11-28T06:07:25.028Z,1.7
2017-11-28T06:08:26.404Z,1.7
2017-11-28T06:09:27.673Z,1.7
2017-11-28T06:10:28.975Z,1.7
2017-11-28T06:11:30.340Z,1.7
2017-11-28T06:12:31.666Z,1.7
2017-11-28T06:13:33.040Z,1.7
2017-11-28T06:14:34.456Z,1.7
2017-11-28T06:15:35.711Z,1.7
2017-11-28T06:16:36.942Z,1.6
2017-11-28T06:17:39.593Z,1.6
2017-11-28T06:18:41.047Z,1.6
2017-11-28T06:19:42.374Z,2
2017-11-28T06:20:43.660Z,1.6
2017-11-28T06:21:45.481Z,1.6
2017-11-28T06:22:46.826Z,1.6
2017-11-28T06:23:48.218Z,1.6
2017-11-28T06:24:49.648Z,2
2017-11-28T06:25:50.966Z,1.6
2017-11-28T06:26:52.333Z,1.6
2017-11-28T06:27:55.122Z,1.6
2017-11-28T06:28:56.776Z,1.6
2017-11-28T06:29:58.058Z,1.6
2017-11-28T06:30:59.470Z,1.6
2017-11-28T06:32:00.894Z,1.6
2017-11-28T06:33:02.373Z,1.6
2017-11-28T06:34:04.113Z,1.6
2017-11-28T06:35:05.415Z,1.6
2017-11-28T06:36:06.805Z,1.6
2017-11-28T06:37:08.250Z,1.5
2017-11-28T06:38:11.103Z,1.6
2017-11-28T06:39:12.398Z,1.7
2017-11-28T06:40:14.464Z,2
2017-11-28T06:41:15.846Z,1.6
2017-11-28T06:42:17.253Z,1.5
2017-11-28T06:43:18.792Z,1.5
2017-11-28T06:44:20.149Z,1.5
2017-11-28T06:45:21.662Z,1.5
2017-11-28T06:46:23.009Z,1.4
2017-11-28T06:47:25.741Z,1.4
2017-11-28T06:48:28.361Z,1.5
2017-11-28T06:49:30.990Z,1.5
2017-11-28T06:50:32.283Z,1.5
2017-11-28T06:51:33.591Z,1.4
2017-11-28T06:52:34.885Z,1.4
2017-11-28T06:53:37.285Z,1.4
2017-11-28T06:54:38.681Z,1.4
2017-11-28T06:55:40.568Z,1.3
2017-11-28T06:56:42.399Z,1.3
2017-11-28T06:57:43.737Z,1.3
2017-11-28T06:58:47.448Z,1.3
2017-11-28T06:59:48.832Z,1.3
2017-11-28T07:00:50.179Z,1.3
2017-11-28T07:01:51.582Z,1.3
2017-11-28T07:02:52.860Z,1.3
2017-11-28T07:03:54.220Z,1.4
2017-11-28T07:04:55.526Z,1.3
2017-11-28T07:05:57.434Z,1.3
2017-11-28T07:06:59.316Z,0.8
2017-11-28T07:08:00.720Z,1.3
2017-11-28T07:09:04.054Z,1.3
2017-11-28T07:10:05.374Z,1.2
2017-11-28T07:11:06.684Z,1.2
2017-11-28T07:12:08.087Z,1.6
2017-11-28T07:13:09.541Z,1.6
2017-11-28T07:14:10.734Z,1.2
2017-11-28T07:15:12.040Z,1.2
2017-11-28T07:16:13.353Z,1.2
2017-11-28T07:17:14.627Z,1.2
2017-11-28T07:18:15.981Z,1.2
2017-11-28T07:19:19.285Z,1.2
2017-11-28T07:20:21.287Z,1.2
2017-11-28T07:21:22.655Z,1.3
2017-11-28T07:22:23.910Z,1.3
2017-11-28T07:23:25.291Z,1.3
2017-11-28T07:24:26.672Z,1.4
2017-11-28T07:25:28.585Z,1.4
2017-11-28T07:26:29.978Z,1.4
2017-11-28T07:27:31.295Z,1.4
2017-11-28T07:28:34.024Z,1.4
2017-11-28T07:29:36.577Z,1.4
2017-11-28T07:30:37.942Z,1.5
2017-11-28T07:31:40.285Z,1.5
2017-11-28T07:32:41.572Z,1.5
2017-11-28T07:33:42.922Z,1.5
2017-11-28T07:34:45.944Z,1.5
2017-11-28T07:35:47.964Z,1.5
2017-11-28T07:36:49.311Z,1.5
2017-11-28T07:37:51.928Z,1.5
2017-11-28T07:38:54.010Z,1.5
2017-11-28T07:39:57.911Z,1.5
2017-11-28T07:40:59.326Z,1.5
2017-11-28T07:42:00.603Z,1.5
2017-11-28T07:43:01.970Z,1.6
2017-11-28T07:44:03.225Z,1.6
2017-11-28T07:45:05.904Z,1.6
2017-11-28T07:46:07.265Z,1.6
2017-11-28T07:47:08.621Z,1.6
2017-11-28T07:48:10.581Z,1.6
2017-11-28T07:49:12.602Z,1.6
2017-11-28T07:50:15.208Z,1.6
2017-11-28T07:51:18.023Z,1.6
2017-11-28T07:52:20.017Z,1.6
2017-11-28T19:20:31.941Z,2.4
2017-11-28T19:21:33.270Z,2.6
2017-11-28T19:22:34.729Z,2.6
2017-11-28T19:23:36.100Z,2.5
2017-11-28T19:24:38.254Z,2.5
2017-11-28T19:25:39.668Z,2.5
2017-11-28T19:26:41.111Z,2.5
2017-11-28T19:27:42.442Z,2.5
2017-11-28T19:28:44.219Z,2.4
2017-11-28T19:29:45.691Z,2.5
2017-11-28T19:30:48.498Z,2.4
2017-11-28T19:33:25.689Z,2.4
2017-11-28T19:34:27.266Z,2.4
2017-11-28T19:35:28.681Z,2.4
2017-11-28T19:36:30.097Z,2.4
2017-11-28T19:37:31.525Z,2.4
2017-11-28T19:38:32.864Z,2.4
2017-11-28T19:39:38.404Z,2.4
2017-11-28T19:40:41.524Z,2.4
2017-11-28T19:41:46.857Z,2.4
2017-11-28T19:42:50.893Z,2.4
2017-11-28T19:43:54.713Z,2.4
2017-11-28T19:44:56.196Z,2.4
2017-11-28T19:45:59.437Z,2.3
2017-11-28T19:47:03.974Z,2.4
2017-11-28T19:48:05.895Z,2.4
2017-11-28T19:49:10.157Z,2.4
2017-11-28T19:50:14.992Z,2.4
2017-11-28T19:51:17.706Z,2.4
2017-11-28T19:52:21.396Z,2.4
2017-11-28T19:53:29.389Z,2.4
2017-11-28T19:54:31.541Z,2.4
2017-11-28T19:55:35.628Z,2.4
2017-11-28T19:56:38.775Z,2.4
2017-11-28T19:57:42.564Z,2.4
2017-11-28T19:58:45.605Z,2.3
2017-11-28T19:59:48.355Z,2.3
2017-11-28T20:00:50.913Z,2.3
2017-11-28T20:01:55.168Z,2.3
2017-11-28T20:02:57.777Z,2.2
2017-11-28T20:04:04.970Z,2.3
2017-11-28T20:05:11.673Z,2.3
2017-11-28T20:06:14.328Z,2.2
2017-11-28T20:07:15.712Z,2.2
2017-11-28T20:08:18.920Z,2.3
2017-11-28T20:09:21.328Z,2.3
2017-11-28T20:10:26.782Z,2.2
2017-11-28T20:11:30.877Z,2.2
2017-11-28T20:12:32.737Z,2.2
2017-11-28T20:13:36.083Z,2.3
2017-11-28T20:14:42.275Z,2.3
2017-11-28T20:15:46.072Z,2.3
2017-11-28T20:16:50.740Z,2.3
2017-11-28T20:17:54.719Z,2.2
2017-11-28T20:18:59.079Z,2.2
2017-11-28T20:20:02.406Z,2.2
2017-11-28T20:21:06.565Z,2.2
2017-11-28T20:22:09.548Z,2.2
2017-11-28T20:23:14.006Z,2.2
2017-11-28T20:24:18.202Z,2.2
2017-11-28T20:25:24.625Z,2.2
2017-11-28T20:26:26.573Z,2.2
2017-11-28T20:27:30.089Z,2.2
2017-11-28T20:28:33.647Z,2.3
2017-11-28T20:29:37.940Z,2.3
2017-11-28T20:30:40.149Z,2.3
2017-11-28T20:31:42.667Z,2.3
2017-11-28T20:32:47.098Z,2.3
2017-11-28T20:33:49.836Z,2.3
2017-11-28T20:34:54.031Z,2.3
2017-11-28T20:35:59.343Z,2.3
2017-11-28T20:37:02.612Z,2.3
2017-11-28T20:38:04.803Z,2.3
2017-11-28T20:39:09.010Z,2.3
2017-11-28T20:40:11.282Z,2.3
2017-11-28T20:41:16.134Z,2.3
2017-11-28T20:42:17.681Z,2.3
2017-11-28T20:43:20.548Z,2.3
2017-11-28T20:44:24.408Z,2.3
2017-11-28T20:45:30.533Z,2.2
2017-11-28T20:46:34.451Z,2.5
2017-11-28T20:47:37.917Z,2.2
2017-11-28T20:48:41.313Z,2.2
2017-11-28T20:49:44.537Z,2.2
2017-11-28T20:50:47.695Z,2.2
2017-11-28T20:51:49.027Z,2.2
2017-11-28T20:52:50.406Z,2.2
2017-11-28T20:53:51.809Z,2.2
2017-11-28T20:54:53.151Z,2.1
2017-11-28T20:55:54.622Z,2.1
2017-11-28T20:56:58.165Z,2.1
2017-11-28T20:57:59.682Z,2.1
2017-11-28T20:59:01.199Z,2.1
2017-11-28T21:00:02.653Z,2
2017-11-28T21:01:04.442Z,2
2017-11-28T21:02:05.847Z,2
2017-11-28T21:03:07.291Z,2.1
2017-11-28T21:04:08.762Z,2
2017-11-28T21:05:11.027Z,2
2017-11-28T21:06:12.458Z,2
2017-11-28T21:07:16.426Z,2
2017-11-28T21:08:17.834Z,2
2017-11-28T21:09:19.280Z,2
2017-11-28T21:10:20.618Z,2
2017-11-28T21:11:22.063Z,2
2017-11-28T21:12:23.463Z,2
2017-11-28T21:13:24.811Z,1.9
2017-11-28T21:14:26.212Z,2
2017-11-28T21:15:27.616Z,2.3
2017-11-28T21:16:29.727Z,1.9
2017-11-28T21:17:32.623Z,1.9
2017-11-28T21:18:33.896Z,1.9
2017-11-28T21:19:35.544Z,2
2017-11-28T21:20:36.758Z,2
2017-11-28T21:21:38.182Z,1.7
2017-11-28T21:22:39.443Z,2
2017-11-28T21:23:40.749Z,2
2017-11-28T21:24:43.004Z,2
2017-11-28T21:25:44.381Z,2
2017-11-28T21:26:46.452Z,2
2017-11-28T21:27:49.193Z,1.9
2017-11-28T21:28:51.043Z,1.9
2017-11-28T21:29:54.542Z,1.9
2017-11-28T21:30:55.944Z,1.9
2017-11-28T21:31:57.329Z,1.9
2017-11-28T21:32:58.674Z,2
2017-11-28T21:34:00.086Z,2
2017-11-28T21:35:01.457Z,2
2017-11-28T21:36:02.844Z,2
2017-11-28T21:37:04.738Z,2
2017-11-28T21:38:08.226Z,2
2017-11-28T21:39:12.754Z,2
2017-11-28T21:40:14.233Z,1.9
2017-11-28T21:41:15.688Z,1.4
2017-11-28T21:42:19.064Z,1.9
2017-11-28T21:43:20.471Z,1.9
2017-11-28T21:44:22.482Z,2
2017-11-28T21:45:25.113Z,2
2017-11-28T21:46:26.356Z,2
2017-11-28T21:47:28.291Z,2
2017-11-28T21:48:32.624Z,1.9
2017-11-28T21:49:35.308Z,1.9
2017-11-28T21:50:36.645Z,2
2017-11-28T21:51:39.311Z,2
2017-11-28T21:52:42.035Z,2
2017-11-28T21:53:43.941Z,2
2017-11-28T21:54:48.975Z,2
2017-11-28T21:55:51.068Z,2
2017-11-28T21:56:53.746Z,2
2017-11-28T21:57:56.619Z,2
2017-11-28T21:59:01.875Z,2
2017-11-28T22:00:06.432Z,2
2017-11-28T22:01:08.428Z,2
2017-11-28T22:02:14.460Z,2
2017-11-28T22:03:17.704Z,2.1
2017-11-28T22:04:21.440Z,2.1
2017-11-28T22:05:25.046Z,2.1
2017-11-28T22:06:27.844Z,2.1
2017-11-28T22:07:29.833Z,2.1
2017-11-28T22:08:36.335Z,2
2017-11-28T22:09:39.547Z,2
2017-11-28T22:10:43.279Z,2
2017-11-28T22:11:45.122Z,2.2
2017-11-28T22:12:50.372Z,2.4
2017-11-28T22:13:53.881Z,2
2017-11-28T22:14:56.504Z,2
2017-11-28T22:16:00.759Z,2
2017-11-28T22:17:04.159Z,2
2017-11-28T22:18:06.680Z,2
2017-11-28T22:19:08.670Z,2
2017-11-28T22:20:16.357Z,2
2017-11-28T22:21:19.105Z,2
2017-11-28T22:22:20.885Z,2
2017-11-28T22:23:23.787Z,2
2017-11-28T22:24:27.098Z,2
2017-11-28T22:25:29.910Z,2.1
2017-11-28T22:26:32.582Z,2.1
2017-11-28T22:27:35.550Z,2.1
2017-11-28T22:28:39.598Z,2
2017-11-28T22:29:42.969Z,2
2017-11-28T22:30:48.186Z,2
2017-11-28T22:31:51.610Z,2
2017-11-28T22:32:56.785Z,2
2017-11-28T22:33:59.368Z,2
2017-11-28T22:35:03.162Z,2
2017-11-28T22:36:09.075Z,2.1
2017-11-28T22:37:13.236Z,2.1
2017-11-28T22:38:15.677Z,2
2017-11-28T22:39:20.336Z,2
2017-11-28T22:40:23.835Z,2
2017-11-28T22:41:29.189Z,2
2017-11-28T22:42:30.469Z,2
2017-11-28T22:43:35.258Z,2
2017-11-28T22:44:38.788Z,2.3
2017-11-28T22:45:41.709Z,2
2017-11-28T22:46:45.036Z,2
2017-11-28T22:47:47.618Z,2
2017-11-28T22:48:50.245Z,2
2017-11-28T22:49:52.920Z,2
2017-11-28T22:50:58.302Z,2.1
2017-11-28T22:52:04.800Z,2.1
2017-11-28T22:53:08.266Z,2.1
2017-11-28T22:54:12.292Z,2.1
2017-11-28T22:55:16.049Z,2.1
2017-11-28T22:56:19.495Z,2.1
2017-11-28T22:57:23.728Z,2.1
2017-11-28T22:58:26.442Z,2.1
2017-11-28T22:59:29.447Z,1.6
2017-11-28T23:00:33.036Z,2.1
2017-11-28T23:01:34.366Z,2.1
2017-11-28T23:02:41.699Z,2.1
2017-11-28T23:03:44.879Z,2.1
2017-11-28T23:04:49.603Z,2.1
2017-11-28T23:05:50.765Z,2.5
2017-11-28T23:06:54.186Z,2.2
2017-11-28T23:08:00.094Z,2.2
2017-11-28T23:09:01.453Z,2.1
2017-11-28T23:10:07.918Z,2.1
2017-11-28T23:11:10.756Z,2.1
2017-11-28T23:12:14.880Z,2.5
2017-11-28T23:13:19.098Z,2.5
2017-11-28T23:14:20.710Z,2.1
2017-11-28T23:15:23.697Z,2.1
2017-11-28T23:16:27.959Z,2.1
2017-11-28T23:17:31.155Z,2.1
2017-11-28T23:18:34.007Z,2.1
2017-11-28T23:19:38.621Z,2.1
2017-11-28T23:20:39.963Z,2.1
2017-11-28T23:21:44.438Z,2.1
2017-11-28T23:22:48.511Z,2.1
2017-11-28T23:23:53.587Z,2.1
2017-11-28T23:24:56.408Z,2.1
2017-11-28T23:26:00.320Z,2.5
2017-11-28T23:27:03.696Z,2.1
2017-11-28T23:28:06.498Z,2
2017-11-28T23:29:09.879Z,2
2017-11-28T23:30:14.845Z,2
2017-11-28T23:31:18.240Z,2.1
2017-11-28T23:32:19.612Z,2
2017-11-28T23:33:22.833Z,2
2017-11-28T23:34:29.676Z,2
2017-11-28T23:35:31.749Z,2
2017-11-28T23:36:33.033Z,2.1
2017-11-28T23:37:34.454Z,2.1
2017-11-28T23:38:35.864Z,2.1
2017-11-28T23:39:37.197Z,2.1
2017-11-28T23:40:38.514Z,2.1
2017-11-28T23:41:39.948Z,2.1
2017-11-28T23:42:41.353Z,2.1
2017-11-28T23:43:42.712Z,2.1
2017-11-28T23:44:45.441Z,2.1
2017-11-28T23:45:46.908Z,2.1
2017-11-28T23:46:48.319Z,2.1
2017-11-28T23:47:49.745Z,2.1
2017-11-28T23:48:51.123Z,2.1
2017-11-28T23:49:52.552Z,2.1
2017-11-28T23:50:53.942Z,2.1
2017-11-28T23:51:55.343Z,2.1
2017-11-28T23:52:56.788Z,2.1
2017-11-28T23:53:58.799Z,2.1
2017-11-28T23:55:02.506Z,2.1
2017-11-28T23:56:03.844Z,2.1
2017-11-28T23:57:05.494Z,2.1
2017-11-28T23:58:07.421Z,2.1
2017-11-28T23:59:08.792Z,2.1
